Time;durP1;ratioP1;P1;durP2;ratioP2;P2;SDS_P1;SDS_P2;PMS_P1;PMS_P2;Temp;Humidity;BMP_temperature;BMP_pressure;BME280_temperature;BME280_humidity;BME280_pressure;Samples;Min_cycle;Max_cycle;Signal;HPM_P1;HPM_P2
2024/02/29 00:02:10;;;;;;;21.50;14.00;;;5.20;99.90;;;;;;4955473;28;20076;-64
2024/02/29 00:04:37;;;;;;;25.95;16.15;;;5.10;99.90;;;;;;4952148;28;20823;-65
2024/02/29 00:07:04;;;;;;;23.60;13.93;;;5.10;99.90;;;;;;4950642;28;20130;-65
2024/02/29 00:09:32;;;;;;;27.05;14.60;;;5.10;99.90;;;;;;4952533;28;20043;-65
2024/02/29 00:11:59;;;;;;;24.15;14.32;;;5.00;99.90;;;;;;4952091;28;20369;-64
2024/02/29 00:14:26;;;;;;;20.50;14.15;;;5.00;99.90;;;;;;4935347;28;20040;-64
2024/02/29 00:16:53;;;;;;;20.70;14.27;;;4.90;99.90;;;;;;4954177;28;20049;-65
2024/02/29 00:19:20;;;;;;;23.48;14.68;;;4.90;99.90;;;;;;4951481;28;20110;-65
2024/02/29 00:21:47;;;;;;;22.35;13.60;;;4.90;99.90;;;;;;4957233;28;20137;-64
2024/02/29 00:24:14;;;;;;;20.15;13.30;;;4.80;99.90;;;;;;4952166;28;20054;-64
2024/02/29 00:26:41;;;;;;;18.55;12.77;;;4.80;99.90;;;;;;4958087;28;20110;-64
2024/02/29 00:29:08;;;;;;;20.20;13.55;;;4.80;99.90;;;;;;4956207;28;20102;-65
2024/02/29 00:31:35;;;;;;;22.63;14.35;;;4.70;99.90;;;;;;4954004;28;20047;-65
2024/02/29 00:34:02;;;;;;;21.58;14.23;;;4.70;99.90;;;;;;4950921;28;20460;-65
2024/02/29 00:36:28;;;;;;;18.77;12.50;;;4.70;99.90;;;;;;4952428;28;20047;-65
2024/02/29 00:38:55;;;;;;;20.63;13.18;;;4.60;99.90;;;;;;4952314;28;20651;-65
2024/02/29 00:41:37;;;;;;;20.60;13.05;;;4.60;99.90;;;;;;4951843;28;20480;-64
2024/02/29 00:44:04;;;;;;;20.65;13.80;;;4.50;99.90;;;;;;4957560;28;20047;-65
2024/02/29 00:46:31;;;;;;;19.20;13.65;;;4.50;99.90;;;;;;4951148;28;20102;-64
2024/02/29 00:48:57;;;;;;;21.27;14.02;;;4.40;99.90;;;;;;4950022;28;20527;-64
2024/02/29 00:51:24;;;;;;;26.00;14.57;;;4.40;99.90;;;;;;4950630;28;20042;-65
2024/02/29 00:53:51;;;;;;;23.88;13.75;;;4.30;99.90;;;;;;4951810;28;20067;-65
2024/02/29 00:56:18;;;;;;;24.20;14.05;;;4.30;99.90;;;;;;4949953;28;20051;-65
2024/02/29 00:58:44;;;;;;;20.08;13.65;;;4.40;99.90;;;;;;4946563;28;20146;-64
2024/02/29 01:01:12;;;;;;;21.23;13.57;;;4.40;99.90;;;;;;4949107;28;20051;-64
2024/02/29 01:03:38;;;;;;;22.30;14.02;;;4.30;99.90;;;;;;4951937;28;20482;-65
2024/02/29 01:06:06;;;;;;;20.98;14.00;;;4.30;99.90;;;;;;4952973;28;20413;-64
2024/02/29 01:08:33;;;;;;;24.60;14.10;;;4.30;99.90;;;;;;4950170;28;20051;-64
2024/02/29 01:11:00;;;;;;;18.92;13.18;;;4.20;99.90;;;;;;4952099;28;20059;-65
2024/02/29 01:13:27;;;;;;;18.60;12.38;;;4.20;99.90;;;;;;4950238;28;20380;-65
2024/02/29 01:15:54;;;;;;;21.42;12.85;;;4.20;99.90;;;;;;4953176;28;20075;-65
2024/02/29 01:18:21;;;;;;;20.08;13.52;;;4.20;99.90;;;;;;4949109;28;20047;-64
2024/02/29 01:20:47;;;;;;;21.02;12.10;;;4.20;99.90;;;;;;4950284;28;20543;-65
2024/02/29 01:23:14;;;;;;;18.83;12.20;;;4.20;99.90;;;;;;4955400;28;20102;-65
2024/02/29 01:25:41;;;;;;;20.30;13.43;;;4.20;99.90;;;;;;4954197;28;20074;-65
2024/02/29 01:28:08;;;;;;;18.52;11.85;;;4.30;99.90;;;;;;4952629;28;20047;-64
2024/02/29 01:30:35;;;;;;;19.20;12.63;;;4.40;99.90;;;;;;4953466;28;20047;-65
2024/02/29 01:33:02;;;;;;;23.17;13.38;;;4.50;99.90;;;;;;4953057;28;20707;-65
2024/02/29 01:35:28;;;;;;;21.58;12.50;;;4.50;99.90;;;;;;4947949;28;20062;-65
2024/02/29 01:37:55;;;;;;;20.08;12.82;;;4.60;99.90;;;;;;4952509;28;20165;-65
2024/02/29 01:40:22;;;;;;;17.95;12.10;;;4.60;99.90;;;;;;4948772;28;20047;-64
2024/02/29 01:42:50;;;;;;;18.60;11.75;;;4.70;99.90;;;;;;4952341;28;20055;-65
2024/02/29 01:45:17;;;;;;;19.50;12.82;;;4.80;99.90;;;;;;4951290;28;20085;-65
2024/02/29 01:47:44;;;;;;;20.52;12.70;;;4.80;99.90;;;;;;4949610;28;20067;-65
2024/02/29 01:50:12;;;;;;;21.02;12.32;;;4.80;99.90;;;;;;4950493;28;20435;-65
2024/02/29 01:52:40;;;;;;;19.80;12.82;;;4.80;99.90;;;;;;4951436;28;20086;-65
2024/02/29 01:55:08;;;;;;;23.27;13.60;;;4.90;99.90;;;;;;4953181;28;20101;-65
2024/02/29 01:57:35;;;;;;;20.23;13.13;;;4.90;99.90;;;;;;4951823;28;20129;-65
2024/02/29 02:00:03;;;;;;;20.17;12.85;;;4.80;99.90;;;;;;4947873;28;20495;-65
2024/02/29 02:02:30;;;;;;;20.55;13.88;;;4.70;99.90;;;;;;4952277;28;20055;-65
2024/02/29 02:04:57;;;;;;;25.52;15.75;;;4.60;99.90;;;;;;4957975;28;20426;-64
2024/02/29 02:07:24;;;;;;;24.05;14.75;;;4.50;99.90;;;;;;4951199;28;20109;-65
2024/02/29 02:09:51;;;;;;;23.10;14.75;;;4.40;99.90;;;;;;4951180;28;20549;-65
2024/02/29 02:12:17;;;;;;;25.55;14.70;;;4.40;99.90;;;;;;4950473;28;20047;-65
2024/02/29 02:14:44;;;;;;;25.42;15.70;;;4.30;99.90;;;;;;4949941;28;20039;-65
2024/02/29 02:17:11;;;;;;;24.45;14.50;;;4.30;99.90;;;;;;4949291;28;20114;-65
2024/02/29 02:19:38;;;;;;;26.70;15.45;;;4.30;99.90;;;;;;4950211;28;20051;-64
2024/02/29 02:22:05;;;;;;;26.45;15.27;;;4.20;99.90;;;;;;4953120;28;20057;-65
2024/02/29 02:24:34;;;;;;;25.48;15.80;;;4.20;99.90;;;;;;4955210;28;20588;-64
2024/02/29 02:27:01;;;;;;;26.92;15.63;;;4.20;99.90;;;;;;4952280;28;20657;-65
2024/02/29 02:29:28;;;;;;;27.23;17.25;;;4.20;99.90;;;;;;4951494;28;20555;-65
2024/02/29 02:31:55;;;;;;;28.83;16.08;;;4.20;99.90;;;;;;4951542;28;20089;-64
2024/02/29 02:34:25;;;;;;;24.17;15.10;;;4.20;99.90;;;;;;4951631;28;20090;-64
2024/02/29 02:36:52;;;;;;;26.23;15.65;;;4.10;99.90;;;;;;4948493;28;20683;-63
2024/02/29 02:39:19;;;;;;;23.90;15.00;;;4.10;99.90;;;;;;4951580;28;20050;-63
2024/02/29 02:41:45;;;;;;;27.98;16.38;;;4.00;99.90;;;;;;4950443;28;20047;-63
2024/02/29 02:44:12;;;;;;;27.83;15.75;;;3.90;99.90;;;;;;4951002;28;20047;-63
2024/02/29 02:46:39;;;;;;;24.92;15.60;;;3.90;99.90;;;;;;4946711;28;20173;-63
2024/02/29 02:49:06;;;;;;;28.15;15.82;;;3.90;99.90;;;;;;4949368;28;20130;-63
2024/02/29 02:51:33;;;;;;;27.27;15.98;;;3.90;99.90;;;;;;4952015;28;20245;-63
2024/02/29 02:54:00;;;;;;;28.80;15.57;;;3.80;99.90;;;;;;4953837;28;20118;-63
2024/02/29 02:56:26;;;;;;;22.30;14.15;;;3.70;99.90;;;;;;4947329;28;20043;-63
2024/02/29 02:58:53;;;;;;;24.83;14.90;;;3.70;99.90;;;;;;4950426;28;20098;-63
2024/02/29 03:01:20;;;;;;;28.25;15.00;;;3.70;99.90;;;;;;4951846;28;20130;-63
2024/02/29 03:03:47;;;;;;;24.23;15.63;;;3.70;99.90;;;;;;4947317;28;20051;-63
2024/02/29 03:06:14;;;;;;;21.60;15.35;;;3.70;99.90;;;;;;4952825;28;20481;-63
2024/02/29 03:08:41;;;;;;;25.77;15.68;;;3.60;99.90;;;;;;4948786;28;20043;-63
2024/02/29 03:11:08;;;;;;;27.52;16.00;;;3.60;99.90;;;;;;4948088;28;20047;-63
2024/02/29 03:13:35;;;;;;;30.17;16.80;;;3.60;99.90;;;;;;4951275;28;20055;-63
2024/02/29 03:16:01;;;;;;;24.05;15.63;;;3.70;99.90;;;;;;4949112;28;20059;-63
2024/02/29 03:18:28;;;;;;;24.88;14.77;;;3.80;99.90;;;;;;4952073;28;20059;-63
2024/02/29 03:20:55;;;;;;;23.38;14.88;;;3.90;99.90;;;;;;4951251;28;20051;-63
2024/02/29 03:23:21;;;;;;;21.80;14.80;;;3.90;99.90;;;;;;4949120;28;20422;-63
2024/02/29 03:25:48;;;;;;;26.65;14.65;;;3.90;99.90;;;;;;4956925;28;20047;-63
2024/02/29 03:28:15;;;;;;;26.65;15.48;;;3.90;99.90;;;;;;4955519;28;20063;-63
2024/02/29 03:30:42;;;;;;;26.88;17.27;;;3.90;99.90;;;;;;4954725;28;20451;-63
2024/02/29 03:33:08;;;;;;;27.25;16.60;;;3.90;99.90;;;;;;4956256;28;20043;-63
2024/02/29 03:35:35;;;;;;;32.13;16.40;;;3.90;99.90;;;;;;4951428;28;20642;-63
2024/02/29 03:38:02;;;;;;;27.55;15.00;;;3.90;99.90;;;;;;4951822;28;20051;-63
2024/02/29 03:40:29;;;;;;;23.73;16.05;;;3.90;99.90;;;;;;4953831;28;20055;-63
2024/02/29 03:42:56;;;;;;;25.60;16.00;;;4.00;99.90;;;;;;4954207;28;20130;-63
2024/02/29 03:45:23;;;;;;;25.48;15.90;;;4.00;99.90;;;;;;4954560;28;20051;-63
2024/02/29 03:47:50;;;;;;;25.88;16.48;;;4.10;99.90;;;;;;4952566;28;20146;-63
2024/02/29 03:50:16;;;;;;;25.30;14.68;;;4.10;99.90;;;;;;4938711;28;20039;-63
2024/02/29 03:52:43;;;;;;;28.85;15.70;;;4.10;99.90;;;;;;4957348;28;20524;-63
2024/02/29 03:55:11;;;;;;;22.38;14.73;;;4.20;99.90;;;;;;4953173;28;20079;-63
2024/02/29 03:57:38;;;;;;;21.27;13.45;;;4.20;99.90;;;;;;4952719;28;20704;-63
2024/02/29 04:00:10;;;;;;;24.30;14.63;;;4.20;99.90;;;;;;4952201;28;20428;-63
2024/02/29 04:02:38;;;;;;;22.92;14.23;;;4.10;99.90;;;;;;4950693;28;20232;-63
2024/02/29 04:05:08;;;;;;;23.50;14.27;;;4.10;99.90;;;;;;4958267;28;20558;-63
2024/02/29 04:07:41;;;;;;;24.48;15.13;;;4.10;99.90;;;;;;4956882;28;20408;-63
2024/02/29 04:10:10;;;;;;;23.63;14.73;;;4.10;99.90;;;;;;4956408;28;20730;-63
2024/02/29 04:12:37;;;;;;;26.20;15.67;;;4.10;99.90;;;;;;4947920;28;20087;-63
2024/02/29 04:15:05;;;;;;;27.50;16.48;;;4.10;99.90;;;;;;4949992;28;20465;-63
2024/02/29 04:17:32;;;;;;;28.15;16.60;;;4.10;99.90;;;;;;4954024;28;20071;-63
2024/02/29 04:19:59;;;;;;;27.70;16.45;;;4.10;99.90;;;;;;4955299;28;20098;-63
2024/02/29 04:22:26;;;;;;;25.30;15.30;;;4.10;99.90;;;;;;4956909;28;20094;-63
2024/02/29 04:24:52;;;;;;;30.63;16.90;;;4.20;99.90;;;;;;4951932;28;20466;-63
2024/02/29 04:27:19;;;;;;;23.42;15.68;;;4.20;99.90;;;;;;4951745;28;20438;-63
2024/02/29 04:29:46;;;;;;;26.90;16.30;;;4.20;99.90;;;;;;4951998;28;20051;-63
2024/02/29 04:32:13;;;;;;;25.20;15.57;;;4.30;99.90;;;;;;4958131;28;20110;-63
2024/02/29 04:34:41;;;;;;;24.85;15.23;;;4.40;99.90;;;;;;4953431;28;20055;-63
2024/02/29 04:37:08;;;;;;;24.05;15.43;;;4.40;99.90;;;;;;4957470;28;20555;-63
2024/02/29 04:39:35;;;;;;;24.13;14.98;;;4.40;99.90;;;;;;4954381;28;20059;-63
2024/02/29 04:42:03;;;;;;;28.60;15.50;;;4.40;99.90;;;;;;4955655;28;20496;-63
2024/02/29 04:44:30;;;;;;;23.02;15.35;;;4.40;99.90;;;;;;4952969;28;20083;-63
2024/02/29 04:46:57;;;;;;;22.98;15.68;;;4.40;99.90;;;;;;4953530;28;20130;-63
2024/02/29 04:49:23;;;;;;;25.05;15.65;;;4.50;99.90;;;;;;4954032;28;20073;-63
2024/02/29 04:51:50;;;;;;;23.60;14.45;;;4.50;99.90;;;;;;4951971;28;20377;-63
2024/02/29 04:54:17;;;;;;;24.77;16.25;;;4.40;99.90;;;;;;4948990;28;20059;-63
2024/02/29 04:56:44;;;;;;;25.52;16.95;;;4.40;99.90;;;;;;4954599;28;20127;-63
2024/02/29 04:59:11;;;;;;;27.45;17.33;;;4.40;99.90;;;;;;4951226;28;20447;-63
2024/02/29 05:01:37;;;;;;;23.27;15.40;;;4.40;99.90;;;;;;4948483;28;20051;-63
2024/02/29 05:04:04;;;;;;;23.10;15.15;;;4.40;99.90;;;;;;4953710;28;20059;-63
2024/02/29 05:06:31;;;;;;;24.08;14.93;;;4.30;99.90;;;;;;4954907;28;20086;-63
2024/02/29 05:08:59;;;;;;;27.77;16.10;;;4.30;99.90;;;;;;4951536;28;20047;-63
2024/02/29 05:11:26;;;;;;;26.42;16.80;;;4.30;99.90;;;;;;4953528;28;20110;-63
2024/02/29 05:13:52;;;;;;;30.38;17.10;;;4.20;99.90;;;;;;4954467;28;20045;-63
2024/02/29 05:16:20;;;;;;;25.25;16.25;;;4.20;99.90;;;;;;4952688;28;20051;-63
2024/02/29 05:18:47;;;;;;;27.90;18.02;;;4.20;99.90;;;;;;4953266;28;20051;-63
2024/02/29 05:21:14;;;;;;;31.63;19.73;;;4.20;99.90;;;;;;4949319;28;20431;-63
2024/02/29 05:23:40;;;;;;;28.45;17.48;;;4.30;99.90;;;;;;4951882;28;20185;-63
2024/02/29 05:26:07;;;;;;;26.52;15.93;;;4.30;99.90;;;;;;4951426;28;20444;-63
2024/02/29 05:28:34;;;;;;;27.40;16.08;;;4.40;99.90;;;;;;4948015;28;20047;-63
2024/02/29 05:31:01;;;;;;;24.50;15.90;;;4.40;99.90;;;;;;4950134;28;20055;-63
2024/02/29 05:33:28;;;;;;;29.77;17.45;;;4.50;99.90;;;;;;4949749;29;20087;-63
2024/02/29 05:35:55;;;;;;;27.10;15.05;;;4.60;99.90;;;;;;4951250;28;20081;-63
2024/02/29 05:38:21;;;;;;;24.20;16.00;;;4.60;99.90;;;;;;4955543;28;20055;-63
2024/02/29 05:40:49;;;;;;;25.98;16.52;;;4.60;99.90;;;;;;4954474;28;20050;-63
2024/02/29 05:43:16;;;;;;;29.33;18.58;;;4.60;99.90;;;;;;4949093;28;20077;-63
2024/02/29 05:45:43;;;;;;;32.22;18.85;;;4.60;99.90;;;;;;4950069;28;20138;-63
2024/02/29 05:48:10;;;;;;;30.33;18.45;;;4.60;99.90;;;;;;4949394;28;20673;-63
2024/02/29 05:50:36;;;;;;;28.10;18.95;;;4.50;99.90;;;;;;4956319;28;20043;-63
2024/02/29 05:53:04;;;;;;;28.15;19.02;;;4.40;99.90;;;;;;4951010;28;20070;-63
2024/02/29 05:55:31;;;;;;;30.05;18.75;;;4.40;99.90;;;;;;4951286;28;20058;-63
2024/02/29 05:57:57;;;;;;;31.15;19.65;;;4.30;99.90;;;;;;4955016;28;20412;-64
2024/02/29 06:00:24;;;;;;;33.08;19.30;;;4.30;99.90;;;;;;4932456;29;20408;-63
2024/02/29 06:02:51;;;;;;;37.40;20.52;;;4.30;99.90;;;;;;4948082;28;20061;-64
2024/02/29 06:05:19;;;;;;;34.00;20.30;;;4.30;99.90;;;;;;4949268;28;20055;-64
2024/02/29 06:07:46;;;;;;;33.75;19.70;;;4.20;99.90;;;;;;4950933;28;20055;-63
2024/02/29 06:10:13;;;;;;;33.00;19.55;;;4.20;99.90;;;;;;4948717;28;20079;-62
2024/02/29 06:12:40;;;;;;;34.85;20.23;;;4.20;99.90;;;;;;4950015;28;20134;-63
2024/02/29 06:15:08;;;;;;;32.17;20.90;;;4.20;99.90;;;;;;4950322;28;20043;-63
2024/02/29 06:17:38;;;;;;;32.67;18.70;;;4.30;99.90;;;;;;4948720;28;20102;-63
2024/02/29 06:20:10;;;;;;;26.80;17.70;;;4.40;99.90;;;;;;4948454;28;20047;-65
2024/02/29 06:22:41;;;;;;;25.42;16.80;;;4.40;99.90;;;;;;4948564;28;20492;-64
2024/02/29 06:25:09;;;;;;;32.85;19.38;;;4.50;99.90;;;;;;4949351;28;20109;-65
2024/02/29 06:27:37;;;;;;;28.05;16.88;;;4.60;99.90;;;;;;4951459;28;20051;-65
2024/02/29 06:30:08;;;;;;;27.48;16.10;;;4.60;99.90;;;;;;4946215;28;20058;-65
2024/02/29 06:32:35;;;;;;;30.00;18.50;;;4.60;99.90;;;;;;4950509;28;20139;-65
2024/02/29 06:35:03;;;;;;;28.05;17.65;;;4.70;99.90;;;;;;4949600;28;20055;-65
2024/02/29 06:37:29;;;;;;;30.60;17.38;;;4.70;99.90;;;;;;4950674;28;20059;-64
2024/02/29 06:39:58;;;;;;;26.02;16.83;;;4.70;99.90;;;;;;4951569;28;20444;-64
2024/02/29 06:42:25;;;;;;;29.17;19.30;;;4.80;99.90;;;;;;4952391;28;20054;-64
2024/02/29 06:44:52;;;;;;;28.02;17.85;;;4.80;99.90;;;;;;4949504;28;20586;-64
2024/02/29 06:47:19;;;;;;;29.33;19.95;;;4.90;99.90;;;;;;4949972;28;20081;-64
2024/02/29 06:49:46;;;;;;;33.47;20.40;;;4.90;99.90;;;;;;4949682;28;20047;-64
2024/02/29 06:52:12;;;;;;;34.13;20.35;;;4.90;99.90;;;;;;4949689;28;20603;-64
2024/02/29 06:54:42;;;;;;;34.47;21.42;;;4.80;99.90;;;;;;4953126;28;20067;-64
2024/02/29 06:57:09;;;;;;;36.38;23.80;;;4.80;99.90;;;;;;4953895;28;20419;-65
2024/02/29 06:59:36;;;;;;;30.58;19.08;;;4.80;99.90;;;;;;4953307;28;20066;-64
2024/02/29 07:02:03;;;;;;;32.75;20.13;;;4.90;99.90;;;;;;4954397;28;20109;-64
2024/02/29 07:04:30;;;;;;;34.13;20.50;;;5.00;99.90;;;;;;4956359;28;20146;-64
2024/02/29 07:06:56;;;;;;;25.73;17.02;;;5.00;99.90;;;;;;4954636;28;20141;-64
2024/02/29 07:09:23;;;;;;;30.73;18.90;;;5.00;99.90;;;;;;4958592;28;20061;-64
2024/02/29 07:11:50;;;;;;;32.60;19.02;;;5.00;99.90;;;;;;4957598;28;20059;-64
2024/02/29 07:14:17;;;;;;;39.05;20.88;;;5.00;99.90;;;;;;4952760;28;20051;-64
2024/02/29 07:16:45;;;;;;;34.42;21.98;;;5.00;99.90;;;;;;4959016;28;20051;-64
2024/02/29 07:19:13;;;;;;;38.80;22.25;;;5.00;99.90;;;;;;4955507;28;20047;-64
2024/02/29 07:21:41;;;;;;;30.58;19.33;;;5.00;99.90;;;;;;4937274;28;20086;-64
2024/02/29 07:24:08;;;;;;;34.30;21.48;;;5.00;99.90;;;;;;4932193;29;20074;-64
2024/02/29 07:26:41;;;;;;;33.28;22.20;;;5.10;99.90;;;;;;4936084;29;20048;-64
2024/02/29 07:29:07;;;;;;;38.25;22.27;;;5.30;99.90;;;;;;4933151;29;20070;-64
2024/02/29 07:31:34;;;;;;;41.65;24.92;;;5.50;99.90;;;;;;4929391;29;20047;-64
2024/02/29 07:34:01;;;;;;;42.20;25.45;;;5.60;99.90;;;;;;4934404;29;20453;-64
2024/02/29 07:36:28;;;;;;;38.78;23.98;;;5.70;99.90;;;;;;4934227;29;20052;-64
2024/02/29 07:38:55;;;;;;;42.92;26.15;;;5.90;99.90;;;;;;4932954;29;20112;-64
2024/02/29 07:41:22;;;;;;;41.20;26.23;;;6.10;99.90;;;;;;4934099;29;20103;-65
2024/02/29 07:43:48;;;;;;;47.13;28.00;;;6.30;99.90;;;;;;4935038;29;20079;-65
2024/02/29 07:46:16;;;;;;;41.60;27.88;;;6.40;99.90;;;;;;4932693;29;20048;-65
2024/02/29 07:48:43;;;;;;;42.80;26.60;;;6.50;99.90;;;;;;4932251;29;20568;-65
2024/02/29 07:51:10;;;;;;;42.13;25.05;;;6.50;99.90;;;;;;4931767;29;20039;-65
2024/02/29 07:53:37;;;;;;;37.00;24.63;;;6.60;99.90;;;;;;4934491;29;20048;-65
2024/02/29 07:56:04;;;;;;;36.78;23.35;;;6.70;99.90;;;;;;4933069;29;20428;-65
2024/02/29 07:58:31;;;;;;;37.42;23.42;;;6.70;99.90;;;;;;4932622;29;20095;-65
2024/02/29 08:00:58;;;;;;;34.75;21.92;;;6.80;99.90;;;;;;4931677;29;20048;-65
2024/02/29 08:03:25;;;;;;;33.42;21.30;;;6.90;99.90;;;;;;4932625;29;20416;-65
2024/02/29 08:05:51;;;;;;;31.80;20.02;;;7.00;99.90;;;;;;4932318;29;20048;-64
2024/02/29 08:08:18;;;;;;;31.92;22.08;;;7.00;99.90;;;;;;4931870;29;20107;-65
2024/02/29 08:10:45;;;;;;;35.03;21.70;;;6.90;99.90;;;;;;4915581;29;20094;-65
2024/02/29 08:13:11;;;;;;;33.58;20.63;;;7.00;99.90;;;;;;4932249;29;20099;-65
2024/02/29 08:15:38;;;;;;;30.00;20.00;;;7.00;99.90;;;;;;4932324;29;20056;-65
2024/02/29 08:18:06;;;;;;;28.25;18.63;;;6.90;99.90;;;;;;4933656;29;20051;-65
2024/02/29 08:20:33;;;;;;;33.08;20.17;;;7.00;99.90;;;;;;4932214;29;20082;-65
2024/02/29 08:22:59;;;;;;;30.20;19.55;;;7.10;99.90;;;;;;4934347;29;20417;-65
2024/02/29 08:25:26;;;;;;;28.42;19.60;;;7.10;99.90;;;;;;4932288;29;20047;-65
2024/02/29 08:27:53;;;;;;;30.15;19.02;;;7.20;99.90;;;;;;4932545;29;20052;-65
2024/02/29 08:30:20;;;;;;;31.50;19.20;;;7.30;99.90;;;;;;4926178;29;20096;-65
2024/02/29 08:32:48;;;;;;;31.58;20.27;;;7.40;99.90;;;;;;4931551;29;20558;-65
2024/02/29 08:35:16;;;;;;;30.95;19.65;;;7.40;99.90;;;;;;4930350;29;20485;-63
2024/02/29 08:37:43;;;;;;;33.25;20.63;;;7.50;99.90;;;;;;4929202;29;20520;-64
2024/02/29 08:40:11;;;;;;;37.13;20.45;;;7.50;99.90;;;;;;4931458;29;20448;-63
2024/02/29 08:42:38;;;;;;;32.05;20.38;;;7.60;99.90;;;;;;4931669;29;20619;-63
2024/02/29 08:45:06;;;;;;;32.78;20.10;;;7.70;99.90;;;;;;4931212;29;20047;-64
2024/02/29 08:47:33;;;;;;;38.05;21.73;;;7.70;99.90;;;;;;4932536;29;20051;-63
2024/02/29 08:50:00;;;;;;;31.70;20.73;;;7.60;99.90;;;;;;4930952;29;20123;-63
2024/02/29 08:52:30;;;;;;;38.22;23.75;;;7.60;99.90;;;;;;4932503;29;20091;-63
2024/02/29 08:54:57;;;;;;;34.87;23.47;;;7.70;99.90;;;;;;4932290;29;20135;-64
2024/02/29 08:57:24;;;;;;;37.75;23.77;;;7.80;99.90;;;;;;4931347;29;20624;-63
2024/02/29 08:59:50;;;;;;;33.55;22.33;;;7.90;99.90;;;;;;4931127;29;20055;-63
2024/02/29 09:02:18;;;;;;;36.83;23.40;;;7.90;99.90;;;;;;4931291;29;20048;-64
2024/02/29 09:04:44;;;;;;;32.80;22.73;;;8.00;99.90;;;;;;4931928;29;20456;-63
2024/02/29 09:07:11;;;;;;;34.53;23.90;;;8.00;99.90;;;;;;4931053;29;20489;-62
2024/02/29 09:09:41;;;;;;;35.72;22.65;;;7.70;99.90;;;;;;4931175;29;20055;-63
2024/02/29 09:12:09;;;;;;;34.90;23.05;;;7.70;99.90;;;;;;4930103;29;20052;-63
2024/02/29 09:14:37;;;;;;;35.78;24.20;;;7.70;99.90;;;;;;4931274;29;20736;-63
2024/02/29 09:17:06;;;;;;;37.20;23.25;;;7.60;99.90;;;;;;4930955;29;20095;-63
2024/02/29 09:19:36;;;;;;;34.35;23.92;;;7.90;99.90;;;;;;4930744;29;20066;-63
2024/02/29 09:22:03;;;;;;;37.00;23.65;;;8.00;99.90;;;;;;4931193;29;20062;-63
2024/02/29 09:24:30;;;;;;;36.40;24.55;;;8.00;99.90;;;;;;4930656;29;20139;-63
2024/02/29 09:26:57;;;;;;;35.90;23.65;;;8.00;99.90;;;;;;4914775;29;20055;-63
2024/02/29 09:29:23;;;;;;;39.45;24.23;;;8.00;99.90;;;;;;4930469;29;20078;-63
2024/02/29 09:31:53;;;;;;;38.53;24.58;;;8.00;99.90;;;;;;4914036;29;20511;-63
2024/02/29 09:34:19;;;;;;;40.92;24.08;;;8.00;99.90;;;;;;4930565;29;20044;-63
2024/02/29 09:36:46;;;;;;;33.83;23.30;;;8.10;99.90;;;;;;4929532;29;20058;-63
2024/02/29 09:39:13;;;;;;;37.83;23.75;;;8.30;99.90;;;;;;4929794;29;20070;-63
2024/02/29 09:41:40;;;;;;;34.50;24.55;;;8.10;99.90;;;;;;4930277;29;20500;-63
2024/02/29 09:44:27;;;;;;;35.10;23.40;;;8.10;99.90;;;;;;4930175;29;20401;-64
2024/02/29 09:46:54;;;;;;;35.50;23.50;;;8.40;99.90;;;;;;4912905;29;20078;-63
2024/02/29 09:49:22;;;;;;;38.22;24.10;;;8.50;99.90;;;;;;4930780;29;20099;-64
2024/02/29 09:51:49;;;;;;;36.95;24.13;;;8.60;99.90;;;;;;4930260;29;20056;-64
2024/02/29 09:54:17;;;;;;;35.63;23.20;;;8.70;99.90;;;;;;4932193;29;20051;-64
2024/02/29 09:56:47;;;;;;;34.75;23.33;;;8.90;99.90;;;;;;4930144;29;20572;-64
2024/02/29 09:59:18;;;;;;;37.00;23.83;;;9.00;99.90;;;;;;4930207;29;20059;-64
2024/02/29 10:01:51;;;;;;;34.97;23.65;;;9.20;99.90;;;;;;4930310;29;20055;-64
2024/02/29 10:04:18;;;;;;;33.58;23.17;;;9.40;99.90;;;;;;4930842;29;20629;-64
2024/02/29 10:06:45;;;;;;;35.55;24.50;;;9.50;99.90;;;;;;4930221;29;20108;-66
2024/02/29 10:09:12;;;;;;;33.33;22.75;;;9.40;99.90;;;;;;4929884;29;20539;-64
2024/02/29 10:11:42;;;;;;;34.17;22.90;;;9.60;99.90;;;;;;4931822;29;20107;-64
2024/02/29 10:14:25;;;;;;;34.83;21.48;;;9.80;99.90;;;;;;4930214;29;20070;-64
2024/02/29 10:16:53;;;;;;;32.38;22.23;;;9.70;99.90;;;;;;4930028;29;20656;-64
2024/02/29 10:19:21;;;;;;;33.67;23.02;;;9.60;99.90;;;;;;4929782;29;20067;-64
2024/02/29 10:21:49;;;;;;;34.53;23.20;;;9.80;99.90;;;;;;4930635;29;20059;-64
2024/02/29 10:24:19;;;;;;;35.08;23.58;;;10.10;99.90;;;;;;4929936;29;20056;-64
2024/02/29 10:26:49;;;;;;;34.10;22.75;;;10.40;99.90;;;;;;4931519;29;20059;-64
2024/02/29 10:29:16;;;;;;;30.33;22.40;;;10.40;99.90;;;;;;4928498;29;20048;-64
2024/02/29 10:31:44;;;;;;;34.83;23.42;;;10.60;99.90;;;;;;4928673;29;20107;-64
2024/02/29 10:34:12;;;;;;;37.42;24.13;;;10.70;99.90;;;;;;4932724;29;20466;-64
2024/02/29 10:36:41;;;;;;;31.92;22.58;;;10.90;99.90;;;;;;4935833;29;20420;-64
2024/02/29 10:39:08;;;;;;;40.08;24.05;;;11.10;99.90;;;;;;4934325;29;20079;-64
2024/02/29 10:41:38;;;;;;;34.55;23.65;;;11.30;99.90;;;;;;4936733;29;20058;-64
2024/02/29 10:44:09;;;;;;;35.33;24.67;;;11.40;99.90;;;;;;4935524;29;20532;-65
2024/02/29 10:46:37;;;;;;;41.45;25.17;;;11.50;99.90;;;;;;4919919;29;20054;-64
2024/02/29 10:49:23;;;;;;;39.22;24.13;;;11.60;99.90;;;;;;4934687;29;20557;-64
2024/02/29 10:52:07;;;;;;;38.45;25.23;;;11.60;99.90;;;;;;4936554;29;20138;-64
2024/02/29 10:54:55;;;;;;;39.45;24.90;;;11.70;99.90;;;;;;4938235;29;20043;-65
2024/02/29 10:57:28;;;;;;;38.15;26.58;;;11.50;99.90;;;;;;4936222;29;20063;-65
2024/02/29 11:00:02;;;;;;;37.25;26.02;;;11.70;99.90;;;;;;4936379;29;20060;-64
2024/02/29 11:02:29;;;;;;;34.20;24.35;;;11.80;99.90;;;;;;4930040;29;20059;-65
2024/02/29 11:04:57;;;;;;;40.95;24.73;;;11.90;99.90;;;;;;4935916;29;20083;-64
2024/02/29 11:07:24;;;;;;;36.45;23.85;;;12.00;99.90;;;;;;4935491;29;20056;-63
2024/02/29 11:09:53;;;;;;;36.92;24.00;;;12.10;99.90;;;;;;4937271;29;20149;-63
2024/02/29 11:12:21;;;;;;;34.08;22.77;;;11.90;99.90;;;;;;4936172;29;20409;-63
2024/02/29 11:14:49;;;;;;;38.40;25.15;;;11.60;99.90;;;;;;4936091;29;20060;-63
2024/02/29 11:17:17;;;;;;;41.70;25.67;;;11.60;99.90;;;;;;4937592;29;20050;-63
2024/02/29 11:19:45;;;;;;;34.42;24.55;;;11.70;99.90;;;;;;4935864;29;20115;-63
2024/02/29 11:22:31;;;;;;;37.85;26.05;;;11.90;99.90;;;;;;4935633;29;20059;-63
2024/02/29 11:24:59;;;;;;;41.42;26.20;;;12.10;99.90;;;;;;4933421;29;20051;-62
2024/02/29 11:27:33;;;;;;;40.20;24.83;;;12.10;99.90;;;;;;4937018;29;20166;-63
2024/02/29 11:30:01;;;;;;;37.75;25.48;;;12.10;99.90;;;;;;4929977;29;20134;-63
2024/02/29 11:32:31;;;;;;;38.40;26.83;;;12.10;99.90;;;;;;4938371;29;20143;-63
2024/02/29 11:34:58;;;;;;;;;;;11.90;99.90;;;;;;4936635;29;20048;-63
2024/02/29 11:37:28;;;;;;;36.70;25.65;;;11.70;99.90;;;;;;4935689;29;19929;-63
2024/02/29 11:40:07;;;;;;;37.88;24.95;;;11.70;99.90;;;;;;4935496;29;20463;-63
2024/02/29 11:42:35;;;;;;;37.63;24.60;;;11.70;99.90;;;;;;4936072;29;20066;-63
2024/02/29 11:45:03;;;;;;;39.33;26.15;;;11.50;99.90;;;;;;4933638;29;20055;-63
2024/02/29 11:47:30;;;;;;;41.30;26.65;;;11.30;99.90;;;;;;4931607;29;20056;-63
2024/02/29 11:50:01;;;;;;;37.67;26.17;;;11.40;99.90;;;;;;4932289;29;20082;-63
2024/02/29 11:52:28;;;;;;;;;;;11.30;99.90;;;;;;4934230;29;20052;-63
2024/02/29 11:54:55;;;;;;;37.83;26.02;;;11.30;99.90;;;;;;4933468;29;20533;-62
2024/02/29 11:57:23;;;;;;;39.85;26.40;;;11.10;99.90;;;;;;4932551;29;20054;-63
2024/02/29 11:59:51;;;;;;;38.58;24.90;;;11.00;99.90;;;;;;4932576;29;20063;-63
2024/02/29 12:02:21;;;;;;;39.17;26.25;;;11.10;99.90;;;;;;4932159;29;20051;-63
2024/02/29 12:04:47;;;;;;;31.58;23.45;;;11.10;99.90;;;;;;4933066;29;20476;-62
2024/02/29 12:07:14;;;;;;;41.50;26.55;;;11.20;99.90;;;;;;4932615;29;20055;-62
2024/02/29 12:09:41;;;;;;;42.40;25.67;;;11.20;99.90;;;;;;4932317;29;20576;-62
2024/02/29 12:12:10;;;;;;;39.78;26.95;;;11.20;99.90;;;;;;4930209;29;20075;-62
2024/02/29 12:14:38;;;;;;;36.70;25.35;;;11.30;99.90;;;;;;4932539;29;20048;-62
2024/02/29 12:17:05;;;;;;;38.85;25.77;;;11.50;99.90;;;;;;4932471;29;20044;-62
2024/02/29 12:19:32;;;;;;;38.25;23.73;;;11.50;99.90;;;;;;4931479;29;20056;-63
2024/02/29 12:21:59;;;;;;;34.95;24.75;;;11.50;99.90;;;;;;4931988;29;20457;-62
2024/02/29 12:24:26;;;;;;;38.90;25.52;;;11.40;99.90;;;;;;4931964;29;20064;-62
2024/02/29 12:26:53;;;;;;;36.13;24.50;;;11.40;99.90;;;;;;4933390;29;20074;-62
2024/02/29 12:29:22;;;;;;;37.28;24.50;;;11.50;99.90;;;;;;4932157;29;20058;-62
2024/02/29 12:31:49;;;;;;;36.17;23.77;;;11.80;99.90;;;;;;4927996;29;20096;-62
2024/02/29 12:34:17;;;;;;;35.83;23.90;;;12.20;99.90;;;;;;4931588;29;20047;-62
2024/02/29 12:36:45;;;;;;;41.50;24.88;;;12.10;99.90;;;;;;4931071;29;20047;-62
2024/02/29 12:39:18;;;;;;;32.08;23.00;;;12.00;99.90;;;;;;4931627;29;20051;-62